createdAt,value
2022-08-17T00:00:42.758Z,8.13
2022-08-17T00:03:17.194Z,7.93
2022-08-17T00:05:50.793Z,7.68
2022-08-17T00:08:23.469Z,8.50
2022-08-17T00:10:53.587Z,9.07
2022-08-17T00:13:26.831Z,9.32
2022-08-17T00:16:00.951Z,8.82
2022-08-17T00:18:58.229Z,7.80
2022-08-17T00:21:23.908Z,8.77
2022-08-17T00:23:55.167Z,8.75
2022-08-17T00:26:34.891Z,7.97
2022-08-17T00:29:19.400Z,8.18
2022-08-17T00:31:50.294Z,9.00
2022-08-17T00:34:18.900Z,8.45
2022-08-17T00:36:46.845Z,8.98
2022-08-17T00:39:14.785Z,9.27
2022-08-17T00:41:43.133Z,9.45
2022-08-17T00:44:12.036Z,9.02
2022-08-17T00:46:43.820Z,8.98
2022-08-17T00:49:15.601Z,9.63
2022-08-17T00:51:48.670Z,10.15
2022-08-17T00:54:21.429Z,9.57
2022-08-17T00:56:54.644Z,9.75
2022-08-17T00:59:28.290Z,10.20
2022-08-17T01:01:56.338Z,9.82
2022-08-17T01:04:28.475Z,9.60
2022-08-17T01:06:58.370Z,9.18
2022-08-17T01:09:26.837Z,9.77
2022-08-17T01:11:55.063Z,8.90
2022-08-17T01:14:27.228Z,9.52
2022-08-17T01:16:57.253Z,8.98
2022-08-17T01:19:34.206Z,9.15
2022-08-17T01:22:09.143Z,8.95
2022-08-17T01:24:41.676Z,8.30
2022-08-17T01:27:10.908Z,9.30
2022-08-17T01:29:44.618Z,10.02
2022-08-17T01:32:13.477Z,9.68
2022-08-17T01:34:43.383Z,9.93
2022-08-17T01:37:13.782Z,10.27
2022-08-17T01:39:48.459Z,9.93
2022-08-17T01:42:26.777Z,10.27
2022-08-17T01:45:02.819Z,9.68
2022-08-17T01:47:31.400Z,9.25
2022-08-17T01:49:59.407Z,9.88
2022-08-17T01:52:27.451Z,9.38
2022-08-17T01:54:57.374Z,10.70
2022-08-17T01:57:25.354Z,9.55
2022-08-17T01:59:53.258Z,10.32
2022-08-17T02:02:30.665Z,10.45
2022-08-17T02:04:59.906Z,10.57
2022-08-17T02:07:28.303Z,10.57
2022-08-17T02:09:57.789Z,10.27
2022-08-17T02:12:38.877Z,10.63
2022-08-17T02:15:10.148Z,10.10
2022-08-17T02:17:40.419Z,10.05
2022-08-17T02:20:10.575Z,9.65
2022-08-17T02:22:44.206Z,10.68
2022-08-17T02:25:18.969Z,9.75
2022-08-17T02:27:47.151Z,10.32
2022-08-17T02:30:49.849Z,9.45
2022-08-17T02:33:06.386Z,10.27
2022-08-17T02:35:38.491Z,10.13
2022-08-17T02:38:07.765Z,10.48
2022-08-17T02:40:40.592Z,9.85
2022-08-17T02:43:09.964Z,10.05
2022-08-17T02:45:38.232Z,9.98
2022-08-17T02:48:06.904Z,10.00
2022-08-17T02:50:34.926Z,10.30
2022-08-17T02:53:04.812Z,11.07
2022-08-17T02:55:42.505Z,10.43
2022-08-17T02:58:12.112Z,9.70
2022-08-17T03:00:44.075Z,10.15
2022-08-17T03:03:13.597Z,10.02
2022-08-17T03:05:41.720Z,10.32
2022-08-17T03:08:10.465Z,9.80
2022-08-17T03:10:44.225Z,11.15
2022-08-17T03:13:14.401Z,12.32
2022-08-17T03:15:45.717Z,11.82
2022-08-17T03:18:24.076Z,11.38
2022-08-17T03:20:55.277Z,11.18
2022-08-17T03:23:24.441Z,11.68
2022-08-17T03:25:55.914Z,11.35
2022-08-17T03:28:25.173Z,10.77
2022-08-17T03:30:53.873Z,11.18
2022-08-17T03:33:22.470Z,10.90
2022-08-17T03:35:50.985Z,10.85
2022-08-17T03:38:19.809Z,10.98
2022-08-17T03:40:56.237Z,10.07
2022-08-17T03:43:30.728Z,9.07
2022-08-17T03:46:28.837Z,10.93
2022-08-17T03:49:21.138Z,12.27
2022-08-17T03:52:06.692Z,13.30
2022-08-17T03:54:52.047Z,12.95
2022-08-17T03:57:20.258Z,13.38
2022-08-17T03:59:49.830Z,13.77
2022-08-17T04:02:22.365Z,13.25
2022-08-17T04:04:52.153Z,13.05
2022-08-17T04:07:21.617Z,12.23
2022-08-17T04:09:50.649Z,13.73
2022-08-17T04:12:21.494Z,13.02
2022-08-17T04:14:53.000Z,12.77
2022-08-17T04:17:25.485Z,13.02
2022-08-17T04:19:54.749Z,13.23
2022-08-17T04:22:30.042Z,13.75
2022-08-17T04:25:08.468Z,13.52
2022-08-17T04:27:36.756Z,13.77
2022-08-17T04:30:08.145Z,13.73
2022-08-17T04:33:05.270Z,13.73
2022-08-17T04:35:42.104Z,12.38
2022-08-17T04:38:13.587Z,13.40
2022-08-17T04:41:00.213Z,12.10
2022-08-17T04:43:31.908Z,12.93
2022-08-17T04:46:05.430Z,12.45
2022-08-17T04:48:37.756Z,12.82
2022-08-17T04:51:10.604Z,12.38
2022-08-17T04:53:40.507Z,12.80
2022-08-17T04:56:16.213Z,11.63
2022-08-17T04:58:53.501Z,12.68
2022-08-17T05:01:28.987Z,12.45
2022-08-17T05:04:21.127Z,12.40
2022-08-17T05:06:50.303Z,11.10
2022-08-17T05:09:19.259Z,12.02
2022-08-17T05:11:47.713Z,12.68
2022-08-17T05:14:15.885Z,12.57
2022-08-17T05:16:48.165Z,12.18
2022-08-17T05:19:16.126Z,12.98
2022-08-17T05:21:44.264Z,12.77
2022-08-17T05:24:38.510Z,12.05
2022-08-17T05:27:06.194Z,12.95
2022-08-17T05:29:35.992Z,12.68
2022-08-17T05:32:39.571Z,13.63
2022-08-17T05:35:00.948Z,13.52
2022-08-17T05:37:28.973Z,12.15
2022-08-17T05:39:57.200Z,12.35
2022-08-17T05:42:25.231Z,12.98
2022-08-17T05:44:57.534Z,12.05
2022-08-17T05:47:28.514Z,12.50
2022-08-17T05:49:57.428Z,13.25
2022-08-17T05:52:41.120Z,12.23
2022-08-17T05:55:25.594Z,12.40
2022-08-17T05:58:11.234Z,13.07
2022-08-17T06:00:51.836Z,12.38
2022-08-17T06:03:48.784Z,11.45
2022-08-17T06:06:34.459Z,11.98
2022-08-17T06:09:27.631Z,12.30
2022-08-17T06:12:26.806Z,11.68
2022-08-17T06:15:16.615Z,11.95
2022-08-17T06:17:45.159Z,12.05
2022-08-17T06:20:16.665Z,11.23
2022-08-17T06:22:50.468Z,12.10
2022-08-17T06:25:27.196Z,10.95
2022-08-17T06:28:02.894Z,10.95
2022-08-17T06:30:59.352Z,10.65
2022-08-17T06:33:39.326Z,10.40
2022-08-17T06:36:30.117Z,10.05
2022-08-17T06:39:15.331Z,10.35
2022-08-17T06:41:54.086Z,10.50
2022-08-17T06:44:47.546Z,10.50
2022-08-17T06:47:28.062Z,10.65
2022-08-17T06:50:14.449Z,10.02
2022-08-17T06:52:54.968Z,9.32
2022-08-17T06:55:37.919Z,9.70
2022-08-17T06:58:16.290Z,10.93
2022-08-17T07:00:48.539Z,9.82
2022-08-17T07:03:30.253Z,8.80
2022-08-17T07:06:04.275Z,9.23
2022-08-17T07:08:51.973Z,9.20
2022-08-17T07:11:27.977Z,8.60
2022-08-17T07:14:16.977Z,9.40
2022-08-17T07:16:51.704Z,9.07
2022-08-17T07:19:24.282Z,8.57
2022-08-17T07:22:06.775Z,8.65
2022-08-17T07:24:45.155Z,8.60
2022-08-17T07:27:21.185Z,8.88
2022-08-17T07:29:56.508Z,8.30
2022-08-17T07:32:31.380Z,7.57
2022-08-17T07:35:23.042Z,8.25
2022-08-17T07:38:24.152Z,8.30
2022-08-17T07:41:06.317Z,7.93
2022-08-17T07:43:37.592Z,7.68
2022-08-17T07:46:34.964Z,7.07
2022-08-17T07:49:25.878Z,8.50
2022-08-17T07:52:13.544Z,8.10
2022-08-17T07:54:56.715Z,7.43
2022-08-17T07:57:35.437Z,7.68
2022-08-17T08:00:29.169Z,7.20
2022-08-17T08:03:26.147Z,7.43
2022-08-17T08:06:00.175Z,7.65
2022-08-17T08:08:34.469Z,7.68
2022-08-17T08:11:10.447Z,8.23
2022-08-17T08:13:43.663Z,7.70
2022-08-17T08:16:25.227Z,8.00
2022-08-17T08:18:58.011Z,7.10
2022-08-17T08:21:37.399Z,7.53
2022-08-17T08:24:49.829Z,6.53
2022-08-17T08:27:33.471Z,7.22
2022-08-17T08:30:09.950Z,7.30
2022-08-17T08:33:06.826Z,6.85
2022-08-17T08:35:45.280Z,6.35
2022-08-17T08:38:26.697Z,5.90
2022-08-17T08:41:26.188Z,5.85
2022-08-17T08:44:08.859Z,4.95
2022-08-17T08:46:52.458Z,6.57
2022-08-17T08:50:02.603Z,6.60
2022-08-17T08:52:52.139Z,5.40
2022-08-17T08:55:32.234Z,6.10
2022-08-17T08:58:09.300Z,4.70
2022-08-17T09:01:01.448Z,4.53
2022-08-17T09:04:21.505Z,4.28
2022-08-17T09:07:09.731Z,4.63
2022-08-17T09:09:59.315Z,4.25
2022-08-17T09:12:41.152Z,3.97
2022-08-17T09:15:18.570Z,4.20
2022-08-17T09:18:14.931Z,3.85
2022-08-17T09:20:56.887Z,3.95
2022-08-17T09:23:35.148Z,4.15
2022-08-17T09:26:12.833Z,3.60
2022-08-17T09:28:48.790Z,3.95
2022-08-17T09:31:26.036Z,4.25
2022-08-17T09:34:00.814Z,3.53
2022-08-17T09:36:41.129Z,4.05
2022-08-17T09:39:14.262Z,3.88
2022-08-17T09:41:49.619Z,3.60
2022-08-17T09:44:29.454Z,3.88
2022-08-17T09:47:06.517Z,3.50
2022-08-17T09:49:42.577Z,4.22
2022-08-17T09:52:19.963Z,3.60
2022-08-17T09:54:50.817Z,3.65
2022-08-17T09:57:38.888Z,4.20
2022-08-17T10:00:25.037Z,4.40
2022-08-17T10:03:19.753Z,3.90
2022-08-17T10:06:01.174Z,5.07
2022-08-17T10:08:43.031Z,3.88
2022-08-17T10:11:52.547Z,3.85
2022-08-17T10:14:37.537Z,3.45
2022-08-17T10:17:23.723Z,3.92
2022-08-17T10:20:03.949Z,3.97
2022-08-17T10:23:03.971Z,3.97
2022-08-17T10:26:09.869Z,3.63
2022-08-17T10:28:47.743Z,3.70
2022-08-17T10:31:34.632Z,3.50
2022-08-17T10:34:27.934Z,3.42
2022-08-17T10:37:12.951Z,3.78
2022-08-17T10:39:52.624Z,3.70
2022-08-17T10:42:32.647Z,3.83
2022-08-17T10:45:08.220Z,4.28
2022-08-17T10:48:04.755Z,3.63
2022-08-17T10:51:07.567Z,3.80
2022-08-17T10:53:53.586Z,3.83
2022-08-17T10:56:42.149Z,4.10
2022-08-17T10:59:50.344Z,3.90
2022-08-17T11:02:28.058Z,3.85
2022-08-17T11:05:19.872Z,4.05
2022-08-17T11:08:15.310Z,3.70
2022-08-17T11:11:11.763Z,3.70
2022-08-17T11:13:53.055Z,3.90
2022-08-17T11:16:48.387Z,3.50
2022-08-17T11:20:06.415Z,3.53
2022-08-17T11:23:23.971Z,4.05
2022-08-17T11:25:55.193Z,4.05
2022-08-17T11:28:28.085Z,3.70
2022-08-17T11:31:01.969Z,4.15
2022-08-17T11:33:59.734Z,3.67
2022-08-17T11:37:06.404Z,4.05
2022-08-17T11:40:06.939Z,3.55
2022-08-17T11:42:58.569Z,4.03
2022-08-17T11:46:02.023Z,3.92
2022-08-17T11:48:57.252Z,3.80
2022-08-17T11:52:15.129Z,3.78
2022-08-17T11:54:47.195Z,4.07
2022-08-17T11:58:00.168Z,3.92
2022-08-17T12:00:57.616Z,4.22
2022-08-17T12:03:53.782Z,4.28
2022-08-17T12:06:40.884Z,4.30
2022-08-17T12:09:19.195Z,4.20
2022-08-17T12:12:12.554Z,4.15
2022-08-17T12:17:41.499Z,4.35
2022-08-17T12:20:16.316Z,4.50
2022-08-17T12:23:00.709Z,4.50
2022-08-17T12:25:39.986Z,4.75
2022-08-17T12:28:25.295Z,4.70
2022-08-17T12:30:54.761Z,5.03
2022-08-17T12:33:28.891Z,4.45
2022-08-17T12:36:02.665Z,4.63
2022-08-17T12:38:34.683Z,5.10
2022-08-17T12:41:22.509Z,4.82
2022-08-17T12:44:01.439Z,5.05
2022-08-17T12:46:33.485Z,5.55
2022-08-17T12:49:24.122Z,5.55
2022-08-17T12:52:01.457Z,5.38
2022-08-17T12:54:40.540Z,6.43
2022-08-17T12:57:14.510Z,5.32
2022-08-17T12:59:48.274Z,6.30
2022-08-17T13:02:38.556Z,5.70
2022-08-17T13:05:17.234Z,5.95
2022-08-17T13:07:46.475Z,6.15
2022-08-17T13:10:22.519Z,5.88
2022-08-17T13:12:53.606Z,6.93
2022-08-17T13:15:27.357Z,6.13
2022-08-17T13:18:07.009Z,6.47
2022-08-17T13:20:36.886Z,6.45
2022-08-17T13:23:12.666Z,6.80
2022-08-17T13:25:41.100Z,7.25
2022-08-17T13:28:30.602Z,7.50
2022-08-17T13:31:26.283Z,6.57
2022-08-17T13:34:13.103Z,6.95
2022-08-17T13:36:42.144Z,6.35
2022-08-17T13:39:19.688Z,6.57
2022-08-17T13:41:49.823Z,6.47
2022-08-17T13:44:39.163Z,6.53
2022-08-17T13:47:18.813Z,6.88
2022-08-17T13:49:49.204Z,8.10
2022-08-17T13:52:38.819Z,6.80
2022-08-17T13:55:18.526Z,6.85
2022-08-17T13:57:47.803Z,6.80
2022-08-17T14:00:30.071Z,6.30
2022-08-17T14:02:58.649Z,7.88
2022-08-17T14:05:27.322Z,7.60
2022-08-17T14:07:59.140Z,7.50
2022-08-17T14:10:28.665Z,8.23
2022-08-17T14:12:57.395Z,7.93
2022-08-17T14:15:55.802Z,7.47
2022-08-17T14:18:45.655Z,6.70
2022-08-17T14:21:08.267Z,7.78
2022-08-17T14:23:36.619Z,7.20
2022-08-17T14:26:05.641Z,6.20
2022-08-17T14:28:33.809Z,7.57
2022-08-17T14:31:08.377Z,7.60
2022-08-17T14:33:36.345Z,6.97
2022-08-17T14:36:08.371Z,8.25
2022-08-17T14:38:37.263Z,7.40
2022-08-17T14:41:06.300Z,7.70
2022-08-17T14:43:39.838Z,8.77
2022-08-17T14:46:12.018Z,8.45
2022-08-17T14:48:40.643Z,9.80
2022-08-17T14:51:08.877Z,10.18
2022-08-17T14:53:37.617Z,8.75
2022-08-17T14:56:06.129Z,10.75
2022-08-17T14:58:34.160Z,10.90
2022-08-17T15:01:02.204Z,9.07
2022-08-17T15:03:31.648Z,9.25
2022-08-17T15:05:59.674Z,9.10
2022-08-17T15:08:28.241Z,9.57
2022-08-17T15:10:56.287Z,11.00
2022-08-17T15:13:27.723Z,12.13
2022-08-17T15:16:07.393Z,12.00
2022-08-17T15:18:37.033Z,12.88
2022-08-17T15:21:08.016Z,11.45
2022-08-17T15:23:36.646Z,12.35
2022-08-17T15:26:04.638Z,12.93
2022-08-17T15:28:32.911Z,11.40
2022-08-17T15:31:00.869Z,12.07
2022-08-17T15:33:30.246Z,11.57
2022-08-17T15:36:02.770Z,11.32
2022-08-17T15:38:39.021Z,13.90
2022-08-17T15:41:08.713Z,13.73
2022-08-17T15:43:37.099Z,12.32
2022-08-17T15:46:10.394Z,13.00
2022-08-17T15:48:43.588Z,12.55
2022-08-17T15:51:18.876Z,10.85
2022-08-17T15:53:50.541Z,12.52
2022-08-17T15:56:19.214Z,13.50
2022-08-17T15:58:50.234Z,13.15
2022-08-17T16:01:45.444Z,14.35
2022-08-17T16:04:26.691Z,14.02
2022-08-17T16:07:00.254Z,13.05
2022-08-17T16:09:28.787Z,14.00
2022-08-17T16:11:56.862Z,12.20
2022-08-17T16:14:25.817Z,14.93
2022-08-17T16:17:01.698Z,13.57
2022-08-17T16:19:29.637Z,16.70
2022-08-17T16:21:59.565Z,14.98
2022-08-17T16:24:27.558Z,14.05
2022-08-17T16:26:55.815Z,14.02
2022-08-17T16:29:23.861Z,14.68
2022-08-17T16:31:52.167Z,15.75
2022-08-17T16:34:21.007Z,13.45
2022-08-17T16:36:55.029Z,17.45
2022-08-17T16:39:28.894Z,15.15
2022-08-17T16:44:44.706Z,14.90
2022-08-17T16:47:17.462Z,14.82
2022-08-17T16:49:45.917Z,17.45
2022-08-17T16:52:14.846Z,18.88
2022-08-17T16:55:05.301Z,14.77
2022-08-17T16:57:33.447Z,15.32
2022-08-17T17:00:01.522Z,15.98
2022-08-17T17:02:33.594Z,17.98
2022-08-17T17:05:08.446Z,16.75
2022-08-17T17:07:56.570Z,16.98
2022-08-17T17:10:37.684Z,16.98
2022-08-17T17:13:12.068Z,17.13
2022-08-17T17:15:54.270Z,17.48
2022-08-17T17:18:42.666Z,16.40
2022-08-17T17:21:17.801Z,15.90
2022-08-17T17:23:58.035Z,16.33
2022-08-17T17:26:59.057Z,18.08
2022-08-17T17:29:51.114Z,18.95
2022-08-17T17:32:29.084Z,19.02
2022-08-17T17:35:06.600Z,20.02
2022-08-17T17:37:36.641Z,16.92
2022-08-17T17:40:19.024Z,17.35
2022-08-17T17:42:51.398Z,19.38
2022-08-17T17:45:25.846Z,19.77
2022-08-17T17:47:54.519Z,17.17
2022-08-17T17:50:33.946Z,17.52
2022-08-17T17:53:08.793Z,20.08
2022-08-17T17:55:51.680Z,16.85
2022-08-17T17:58:39.859Z,20.05
2022-08-17T18:01:41.749Z,16.70
2022-08-17T18:04:23.413Z,16.88
2022-08-17T18:07:11.180Z,17.67
2022-08-17T18:10:04.329Z,17.45
2022-08-17T18:13:03.165Z,17.38
2022-08-17T18:15:41.425Z,17.05
2022-08-17T18:18:42.909Z,17.20
2022-08-17T18:21:19.130Z,16.27
2022-08-17T18:23:53.637Z,17.83
2022-08-17T18:26:50.966Z,21.13
2022-08-17T18:29:43.521Z,16.40
2022-08-17T18:32:33.088Z,16.73
2022-08-17T18:35:27.793Z,16.13
2022-08-17T18:38:20.443Z,16.73
2022-08-17T18:41:01.777Z,15.70
2022-08-17T18:43:43.820Z,16.75
2022-08-17T18:46:31.206Z,17.95
2022-08-17T18:49:03.298Z,16.92
2022-08-17T18:51:41.073Z,16.55
2022-08-17T18:54:23.556Z,17.20
2022-08-17T18:56:57.930Z,17.13
2022-08-17T18:59:36.345Z,18.83
2022-08-17T19:02:45.618Z,18.15
2022-08-17T19:05:25.939Z,18.00
2022-08-17T19:07:55.121Z,18.40
2022-08-17T19:10:31.956Z,18.45
2022-08-17T19:13:21.858Z,18.42
2022-08-17T19:16:10.076Z,17.15
2022-08-17T19:18:51.988Z,18.58
2022-08-17T19:21:27.993Z,18.35
2022-08-17T19:24:07.513Z,19.60
2022-08-17T19:26:54.856Z,19.15
2022-08-17T19:29:34.277Z,18.52
2022-08-17T19:32:03.277Z,17.73
2022-08-17T19:34:35.438Z,19.55
2022-08-17T19:37:14.996Z,19.35
2022-08-17T19:39:56.263Z,17.75
2022-08-17T19:42:37.118Z,18.10
2022-08-17T19:45:20.647Z,16.52
2022-08-17T19:48:03.246Z,18.13
2022-08-17T19:50:41.606Z,18.17
2022-08-17T19:53:41.686Z,17.88
2022-08-17T19:56:24.477Z,18.33
2022-08-17T19:59:02.345Z,18.23
2022-08-17T20:01:39.054Z,19.67
2022-08-17T20:04:15.567Z,17.70
2022-08-17T20:06:50.159Z,19.55
2022-08-17T20:09:33.819Z,19.40
2022-08-17T20:12:09.407Z,18.60
2022-08-17T20:14:53.835Z,19.45
2022-08-17T20:17:30.584Z,18.02
2022-08-17T20:20:12.264Z,17.90
2022-08-17T20:22:58.309Z,20.00
2022-08-17T20:25:39.285Z,18.45
2022-08-17T20:28:24.538Z,19.13
2022-08-17T20:30:53.548Z,19.13
2022-08-17T20:33:29.762Z,18.73
2022-08-17T20:36:21.545Z,18.15
2022-08-17T20:38:54.783Z,18.40
2022-08-17T20:41:27.243Z,19.15
2022-08-17T20:44:06.762Z,19.23
2022-08-17T20:46:57.778Z,18.10
2022-08-17T20:49:42.110Z,18.77
2022-08-17T20:52:15.558Z,18.25
2022-08-17T20:54:50.922Z,18.20
2022-08-17T20:57:48.895Z,18.20
2022-08-17T21:00:45.485Z,17.95
2022-08-17T21:03:50.222Z,19.30
2022-08-17T21:06:25.151Z,19.45
2022-08-17T21:09:29.674Z,20.77
2022-08-17T21:12:04.289Z,20.50
2022-08-17T21:14:59.593Z,19.25
2022-08-17T21:17:56.285Z,19.65
2022-08-17T21:20:40.530Z,18.95
2022-08-17T21:23:31.305Z,20.33
2022-08-17T21:26:30.238Z,19.77
2022-08-17T21:29:29.650Z,20.50
2022-08-17T21:32:24.568Z,19.50
2022-08-17T21:35:28.455Z,19.48
2022-08-17T21:38:05.169Z,19.83
2022-08-17T21:40:36.316Z,19.63
2022-08-17T21:43:23.512Z,19.88
2022-08-17T21:46:24.668Z,18.55
2022-08-17T21:48:57.204Z,19.83
2022-08-17T21:51:30.167Z,18.95
2022-08-17T21:54:02.380Z,19.40
2022-08-17T21:56:36.287Z,19.33
2022-08-17T21:59:09.326Z,19.20
2022-08-17T22:01:41.312Z,19.90
2022-08-17T22:04:25.247Z,20.77
2022-08-17T22:06:57.202Z,20.08
2022-08-17T22:09:31.896Z,21.45
2022-08-17T22:12:06.491Z,20.33
2022-08-17T22:14:53.003Z,21.35
2022-08-17T22:17:25.183Z,22.27
2022-08-17T22:19:56.837Z,20.27
2022-08-17T22:22:35.298Z,21.80
2022-08-17T22:25:20.811Z,24.00
2022-08-17T22:27:55.371Z,24.02
2022-08-17T22:30:37.619Z,23.08
2022-08-17T22:33:36.911Z,24.45
2022-08-17T22:36:29.877Z,25.25
2022-08-17T22:41:51.859Z,26.27
2022-08-17T22:44:29.408Z,24.77
2022-08-17T22:47:11.625Z,24.23
2022-08-17T22:49:53.595Z,24.52
2022-08-17T22:52:34.376Z,24.40
2022-08-17T22:55:30.613Z,24.50
2022-08-17T22:58:17.243Z,24.80
2022-08-17T23:00:48.239Z,25.63
2022-08-17T23:03:20.957Z,26.30
2022-08-17T23:06:05.808Z,26.10
2022-08-17T23:08:37.020Z,26.30
2022-08-17T23:11:07.702Z,27.65
2022-08-17T23:13:37.649Z,26.92
2022-08-17T23:16:06.033Z,25.35
2022-08-17T23:18:36.330Z,26.00
2022-08-17T23:21:07.267Z,25.98
2022-08-17T23:23:37.041Z,26.25
2022-08-17T23:26:05.214Z,26.52
2022-08-17T23:28:37.423Z,26.02
2022-08-17T23:31:06.729Z,26.77
2022-08-17T23:33:37.260Z,27.42
2022-08-17T23:36:06.780Z,26.27
2022-08-17T23:38:34.812Z,26.67
2022-08-17T23:41:11.664Z,27.25
2022-08-17T23:43:40.445Z,28.40
2022-08-17T23:46:08.686Z,28.20
2022-08-17T23:48:38.605Z,27.80
2022-08-17T23:51:12.609Z,27.92
2022-08-17T23:53:47.247Z,27.80
2022-08-17T23:56:17.714Z,26.33
2022-08-17T23:58:46.425Z,27.92
